createdAt,value
2019-05-20T00:00:45.591Z,3464
2019-05-20T00:01:46.347Z,3464
2019-05-20T00:02:47.122Z,3464
2019-05-20T00:03:47.870Z,3464
2019-05-20T00:04:48.703Z,3464
2019-05-20T00:05:49.637Z,3464
2019-05-20T00:06:50.746Z,3464
2019-05-20T00:07:51.492Z,3464
2019-05-20T00:08:52.295Z,3464
2019-05-20T00:09:53.135Z,3464
2019-05-20T00:10:53.854Z,3464
2019-05-20T00:11:54.628Z,3464
2019-05-20T00:12:55.413Z,3464
2019-05-20T00:13:56.159Z,3464
2019-05-20T00:14:56.942Z,3464
2019-05-20T00:15:57.691Z,3464
2019-05-20T00:16:58.479Z,3464
2019-05-20T00:17:59.242Z,3464
2019-05-20T00:18:59.991Z,3464
2019-05-20T00:20:00.803Z,3464
2019-05-20T00:21:01.574Z,3464
2019-05-20T00:22:02.401Z,3464
2019-05-20T00:23:03.200Z,3464
2019-05-20T00:24:03.955Z,3464
2019-05-20T00:25:04.712Z,3464
2019-05-20T00:26:05.465Z,3464
2019-05-20T00:27:06.226Z,3464
2019-05-20T00:28:06.992Z,3464
2019-05-20T00:29:07.723Z,3464
2019-05-20T00:30:08.415Z,3464
2019-05-20T00:31:09.191Z,3464
2019-05-20T00:32:09.977Z,3464
2019-05-20T00:33:10.698Z,3464
2019-05-20T00:34:11.488Z,3464
2019-05-20T00:35:12.262Z,3444
2019-05-20T00:36:13.103Z,3444
2019-05-20T00:37:13.910Z,3444
2019-05-20T00:38:14.670Z,3444
2019-05-20T00:39:15.433Z,3444
2019-05-20T00:40:16.218Z,3444
2019-05-20T00:41:17.041Z,3444
2019-05-20T00:42:17.835Z,3444
2019-05-20T00:43:18.567Z,3444
2019-05-20T00:44:19.484Z,3444
2019-05-20T00:45:20.246Z,3444
2019-05-20T00:46:21.061Z,3444
2019-05-20T00:47:21.841Z,3444
2019-05-20T00:48:22.653Z,3444
2019-05-20T00:49:23.441Z,3444
2019-05-20T00:50:24.170Z,3444
2019-05-20T00:51:24.971Z,3444
2019-05-20T00:52:25.716Z,3444
2019-05-20T00:53:26.476Z,3444
2019-05-20T00:54:27.206Z,3444
2019-05-20T00:55:27.951Z,3444
2019-05-20T00:56:28.760Z,3444
2019-05-20T00:57:29.494Z,3444
2019-05-20T00:58:30.266Z,3444
2019-05-20T00:59:31.006Z,3444
2019-05-20T01:00:31.735Z,3444
2019-05-20T01:01:32.527Z,3444
2019-05-20T01:02:33.287Z,3444
2019-05-20T01:03:34.066Z,3444
2019-05-20T01:04:34.842Z,3444
2019-05-20T01:05:35.583Z,3444
2019-05-20T01:06:36.374Z,3444
2019-05-20T01:07:37.233Z,3444
2019-05-20T01:08:37.973Z,3444
2019-05-20T01:09:38.677Z,3444
2019-05-20T01:10:39.374Z,3444
2019-05-20T01:11:40.127Z,3444
2019-05-20T01:12:40.890Z,3444
2019-05-20T01:13:41.631Z,3444
2019-05-20T01:14:42.336Z,3444
2019-05-20T01:15:43.092Z,3444
2019-05-20T01:16:43.867Z,3424
2019-05-20T01:17:44.649Z,3424
2019-05-20T01:18:45.433Z,3424
2019-05-20T01:19:46.161Z,3424
2019-05-20T01:20:46.895Z,3424
2019-05-20T01:21:47.644Z,3424
2019-05-20T01:22:48.426Z,3424
2019-05-20T01:23:49.241Z,3424
2019-05-20T01:24:49.971Z,3424
2019-05-20T01:25:50.705Z,3424
2019-05-20T01:26:51.464Z,3424
2019-05-20T01:27:52.185Z,3424
2019-05-20T01:28:52.915Z,3424
2019-05-20T01:29:53.614Z,3424
2019-05-20T01:30:54.334Z,3424
2019-05-20T01:31:55.168Z,3424
2019-05-20T01:32:55.992Z,3424
2019-05-20T01:33:56.785Z,3424
2019-05-20T01:34:57.582Z,3424
2019-05-20T01:35:58.286Z,3424
2019-05-20T01:36:58.997Z,3424
2019-05-20T01:37:59.832Z,3424
2019-05-20T01:39:00.535Z,3424
2019-05-20T01:40:01.324Z,3424
2019-05-20T01:41:02.095Z,3424
2019-05-20T01:42:02.798Z,3424
2019-05-20T01:43:03.563Z,3424
2019-05-20T01:44:04.312Z,3424
2019-05-20T01:45:05.103Z,3424
2019-05-20T01:46:05.842Z,3424
2019-05-20T01:47:06.566Z,3424
2019-05-20T01:48:07.424Z,3424
2019-05-20T01:49:08.187Z,3424
2019-05-20T01:50:09.018Z,3424
2019-05-20T01:51:09.777Z,3424
2019-05-20T01:52:10.521Z,3424
2019-05-20T01:53:11.335Z,3424
2019-05-20T01:54:12.147Z,3424
2019-05-20T01:55:13.129Z,3424
2019-05-20T01:56:13.852Z,3404
2019-05-20T01:57:14.619Z,3404
2019-05-20T01:58:15.450Z,3404
2019-05-20T01:59:16.186Z,3404
2019-05-20T02:00:17.021Z,3404
2019-05-20T02:01:17.750Z,3404
2019-05-20T02:02:18.677Z,3404
2019-05-20T02:03:30.784Z,3404
2019-05-20T02:04:33.274Z,3404
2019-05-20T02:05:34.041Z,3404
2019-05-20T02:06:34.799Z,3404
2019-05-20T02:07:35.559Z,3404
2019-05-20T02:08:36.418Z,3404
2019-05-20T02:09:37.232Z,3404
2019-05-20T02:10:37.983Z,3404
2019-05-20T02:11:38.739Z,3404
2019-05-20T02:12:39.446Z,3404
2019-05-20T02:13:40.259Z,3404
2019-05-20T02:14:41.053Z,3404
2019-05-20T02:15:41.746Z,3404
2019-05-20T02:16:42.463Z,3404
2019-05-20T02:17:43.198Z,3404
2019-05-20T02:18:44.024Z,3404
2019-05-20T02:19:44.803Z,3404
2019-05-20T02:20:45.552Z,3404
2019-05-20T02:21:46.329Z,3404
2019-05-20T02:22:47.085Z,3404
2019-05-20T02:23:47.896Z,3404
2019-05-20T02:24:48.709Z,3404
2019-05-20T02:25:49.471Z,3404
2019-05-20T02:26:50.243Z,3404
2019-05-20T02:27:50.991Z,3404
2019-05-20T02:28:51.764Z,3404
2019-05-20T02:29:52.531Z,3404
2019-05-20T02:30:56.797Z,3404
2019-05-20T02:31:57.983Z,3404
2019-05-20T02:32:58.721Z,3404
2019-05-20T02:33:59.692Z,3404
2019-05-20T02:35:00.510Z,3404
2019-05-20T02:36:01.326Z,3404
2019-05-20T02:37:02.239Z,3404
2019-05-20T02:38:02.956Z,3404
2019-05-20T02:39:03.753Z,3404
2019-05-20T02:40:04.479Z,3404
2019-05-20T02:41:05.217Z,3404
2019-05-20T02:42:06.053Z,3404
2019-05-20T02:43:06.837Z,3404
2019-05-20T02:44:07.702Z,3404
2019-05-20T02:45:08.464Z,3404
2019-05-20T02:46:09.221Z,3404
2019-05-20T02:47:10.056Z,3384
2019-05-20T02:48:10.793Z,3384
2019-05-20T02:49:11.579Z,3384
2019-05-20T02:50:12.337Z,3384
2019-05-20T02:51:13.151Z,3384
2019-05-20T02:52:13.922Z,3384
2019-05-20T02:53:14.698Z,3384
2019-05-20T02:54:15.547Z,3384
2019-05-20T02:55:16.305Z,3384
2019-05-20T02:56:17.059Z,3384
2019-05-20T02:57:17.864Z,3384
2019-05-20T02:58:18.655Z,3384
2019-05-20T02:59:19.554Z,3384
2019-05-20T03:00:20.319Z,3384
2019-05-20T03:01:22.045Z,3384
2019-05-20T03:02:23.066Z,3384
2019-05-20T03:03:23.806Z,3384
2019-05-20T03:04:24.672Z,3384
2019-05-20T03:05:25.414Z,3384
2019-05-20T03:06:26.180Z,3384
2019-05-20T03:07:27.037Z,3384
2019-05-20T03:08:27.786Z,3384
2019-05-20T03:09:28.604Z,3384
2019-05-20T03:10:29.385Z,3384
2019-05-20T03:11:30.130Z,3384
2019-05-20T03:12:30.942Z,3384
2019-05-20T03:13:31.667Z,3384
2019-05-20T03:14:32.487Z,3384
2019-05-20T03:15:33.247Z,3384
2019-05-20T03:16:33.971Z,3384
2019-05-20T03:17:34.752Z,3384
2019-05-20T03:18:35.615Z,3384
2019-05-20T03:19:36.424Z,3384
2019-05-20T03:20:37.178Z,3384
2019-05-20T03:21:37.927Z,3384
2019-05-20T03:22:38.682Z,3384
2019-05-20T03:23:39.455Z,3384
2019-05-20T03:24:40.289Z,3384
2019-05-20T03:25:41.078Z,3384
2019-05-20T03:26:41.860Z,3384
2019-05-20T03:27:42.642Z,3384
2019-05-20T03:28:43.369Z,3384
2019-05-20T03:29:44.184Z,3384
2019-05-20T03:30:44.957Z,3384
2019-05-20T03:31:45.679Z,3384
2019-05-20T03:32:46.476Z,3384
2019-05-20T03:33:47.253Z,3384
2019-05-20T03:34:53.960Z,3384
2019-05-20T03:36:02.210Z,3384
2019-05-20T03:37:03.212Z,3384
2019-05-20T03:38:04.029Z,3384
2019-05-20T03:39:04.766Z,3384
2019-05-20T03:40:05.590Z,3384
2019-05-20T03:41:06.411Z,3384
2019-05-20T03:42:07.171Z,3384
2019-05-20T03:43:07.930Z,3384
2019-05-20T03:44:08.695Z,3384
2019-05-20T03:45:09.478Z,3384
2019-05-20T03:46:10.253Z,3384
2019-05-20T03:47:10.999Z,3364
2019-05-20T03:48:11.802Z,3384
2019-05-20T03:49:12.536Z,3384
2019-05-20T03:50:13.378Z,3364
2019-05-20T03:51:14.205Z,3364
2019-05-20T03:52:14.990Z,3364
2019-05-20T03:53:15.833Z,3364
2019-05-20T03:54:16.575Z,3364
2019-05-20T03:55:17.359Z,3364
2019-05-20T03:56:18.230Z,3364
2019-05-20T03:57:19.028Z,3364
2019-05-20T03:58:19.918Z,3364
2019-05-20T03:59:20.665Z,3364
2019-05-20T04:00:21.474Z,3364
2019-05-20T04:01:22.282Z,3364
2019-05-20T04:02:23.018Z,3364
2019-05-20T04:03:23.852Z,3364
2019-05-20T04:04:25.267Z,3364
2019-05-20T04:05:26.292Z,3364
2019-05-20T04:06:27.046Z,3364
2019-05-20T04:07:27.807Z,3364
2019-05-20T04:08:28.658Z,3364
2019-05-20T04:09:29.418Z,3364
2019-05-20T04:10:30.211Z,3364
2019-05-20T04:11:31.004Z,3364
2019-05-20T04:12:31.754Z,3364
2019-05-20T04:13:34.759Z,3364
2019-05-20T04:14:35.831Z,3364
2019-05-20T04:15:36.572Z,3364
2019-05-20T04:16:37.296Z,3364
2019-05-20T04:17:38.026Z,3364
2019-05-20T04:18:38.819Z,3364
2019-05-20T04:19:39.613Z,3364
2019-05-20T04:20:40.403Z,3364
2019-05-20T04:21:41.154Z,3364
2019-05-20T04:22:41.942Z,3364
2019-05-20T04:23:42.800Z,3364
2019-05-20T04:24:43.671Z,3364
2019-05-20T04:25:44.503Z,3364
2019-05-20T04:26:45.232Z,3364
2019-05-20T04:27:46.012Z,3364
2019-05-20T04:28:46.847Z,3364
2019-05-20T04:29:47.656Z,3364
2019-05-20T04:30:48.446Z,3364
2019-05-20T04:31:49.178Z,3364
2019-05-20T04:32:49.944Z,3364
2019-05-20T04:33:50.763Z,3364
2019-05-20T04:34:51.595Z,3364
2019-05-20T04:35:52.404Z,3364
2019-05-20T04:36:53.182Z,3364
2019-05-20T04:37:53.979Z,3344
2019-05-20T04:38:54.806Z,3344
2019-05-20T04:39:55.759Z,3344
2019-05-20T04:40:56.580Z,3344
2019-05-20T04:41:57.342Z,3344
2019-05-20T04:42:58.121Z,3344
2019-05-20T04:43:58.936Z,3344
2019-05-20T04:44:59.736Z,3344
2019-05-20T04:46:00.506Z,3344
2019-05-20T04:47:01.294Z,3344
2019-05-20T04:48:02.056Z,3344
2019-05-20T04:49:02.875Z,3344
2019-05-20T04:50:03.692Z,3344
2019-05-20T04:51:04.555Z,3344
2019-05-20T04:52:05.336Z,3344
2019-05-20T04:53:06.119Z,3344
2019-05-20T04:54:06.957Z,3344
2019-05-20T04:55:07.805Z,3344
2019-05-20T04:56:08.626Z,3344
2019-05-20T04:57:09.375Z,3344
2019-05-20T04:58:10.149Z,3344
2019-05-20T04:59:10.977Z,3344
2019-05-20T05:00:11.822Z,3344
2019-05-20T05:01:12.617Z,3344
2019-05-20T05:02:13.388Z,3324
2019-05-20T05:03:14.170Z,3324
2019-05-20T05:04:14.994Z,3324
2019-05-20T05:05:15.777Z,3324
2019-05-20T05:06:16.563Z,3324
2019-05-20T05:07:17.351Z,3324
2019-05-20T05:08:18.178Z,3324
2019-05-20T05:09:19.046Z,3324
2019-05-20T05:10:19.863Z,3324
2019-05-20T05:11:20.666Z,3324
2019-05-20T05:12:21.418Z,3324
2019-05-20T05:13:22.169Z,3324
2019-05-20T05:14:23.002Z,3324
2019-05-20T05:15:23.795Z,3324
2019-05-20T05:16:24.569Z,3324
2019-05-20T05:17:25.332Z,3324
2019-05-20T05:18:26.100Z,3324
2019-05-20T05:19:26.958Z,3324
2019-05-20T05:20:27.813Z,3324
2019-05-20T05:21:28.650Z,3324
2019-05-20T05:22:29.416Z,3324
2019-05-20T05:23:30.207Z,3324
2019-05-20T05:24:31.026Z,3324
2019-05-20T05:25:31.845Z,3324
2019-05-20T05:26:32.603Z,3324
2019-05-20T05:27:33.381Z,3304
2019-05-20T05:28:34.167Z,3304
2019-05-20T05:29:35.000Z,3304
2019-05-20T05:30:35.838Z,3304
2019-05-20T05:31:36.615Z,3304
2019-05-20T05:32:37.374Z,3304
2019-05-20T05:33:38.150Z,3304
2019-05-20T05:34:38.987Z,3304
2019-05-20T05:35:52.176Z,3304
2019-05-20T05:36:54.594Z,3304
2019-05-20T05:37:55.360Z,3304
2019-05-20T05:38:56.314Z,3304
2019-05-20T05:39:57.139Z,3304
2019-05-20T05:40:58.195Z,3304
2019-05-20T05:41:58.952Z,3304
2019-05-20T05:42:59.686Z,3304
2019-05-20T05:44:00.458Z,3304
2019-05-20T05:45:01.364Z,3304
2019-05-20T05:46:02.348Z,3304
2019-05-20T05:47:03.149Z,3304
2019-05-20T05:48:03.862Z,3304
2019-05-20T05:49:04.571Z,3304
2019-05-20T05:50:05.335Z,3284
2019-05-20T05:51:06.110Z,3284
2019-05-20T05:52:06.880Z,3284
2019-05-20T05:53:07.610Z,3284
2019-05-20T05:54:08.475Z,3284
2019-05-20T05:55:09.432Z,3284
2019-05-20T05:56:10.409Z,3284
2019-05-20T05:57:11.282Z,3284
2019-05-20T05:58:12.025Z,3284
2019-05-20T05:59:12.746Z,3284
2019-05-20T06:00:13.570Z,3284
2019-05-20T06:01:14.312Z,3284
2019-05-20T06:02:15.099Z,3284
2019-05-20T06:03:15.886Z,3284
2019-05-20T06:04:16.649Z,3284
2019-05-20T06:05:17.440Z,3284
2019-05-20T06:06:18.197Z,3284
2019-05-20T06:07:18.997Z,3284
2019-05-20T06:08:19.734Z,3284
2019-05-20T06:09:20.587Z,3284
2019-05-20T06:10:21.317Z,3284
2019-05-20T06:11:22.032Z,3264
2019-05-20T06:12:22.843Z,3264
2019-05-20T06:13:23.589Z,3264
2019-05-20T06:14:24.387Z,3264
2019-05-20T06:15:25.226Z,3264
2019-05-20T06:16:35.699Z,3264
2019-05-20T06:17:38.001Z,3264
2019-05-20T06:18:38.937Z,3264
2019-05-20T06:19:39.692Z,3264
2019-05-20T06:20:40.473Z,3264
2019-05-20T06:21:41.197Z,3264
2019-05-20T06:22:41.998Z,3264
2019-05-20T06:23:42.768Z,3264
2019-05-20T06:24:43.539Z,3264
2019-05-20T06:25:44.378Z,3264
2019-05-20T06:26:45.227Z,3264
2019-05-20T06:27:46.006Z,3264
2019-05-20T06:28:46.843Z,3264
2019-05-20T06:29:47.714Z,3264
2019-05-20T06:30:49.254Z,3244
2019-05-20T06:31:50.058Z,3244
2019-05-20T06:32:51.043Z,3244
2019-05-20T06:33:51.829Z,3244
2019-05-20T06:34:52.562Z,3244
2019-05-20T06:35:53.327Z,3244
2019-05-20T06:36:54.122Z,3244
2019-05-20T06:37:54.944Z,3244
2019-05-20T06:38:55.706Z,3244
2019-05-20T06:39:56.503Z,3244
2019-05-20T06:40:57.302Z,3244
2019-05-20T06:41:58.116Z,3244
2019-05-20T06:42:59.099Z,3244
2019-05-20T06:43:59.853Z,3244
2019-05-20T06:45:00.661Z,3244
2019-05-20T06:46:01.445Z,3244
2019-05-20T06:47:02.263Z,3244
2019-05-20T06:48:03.114Z,3224
2019-05-20T06:49:03.860Z,3224
2019-05-20T06:50:04.698Z,3224
2019-05-20T06:51:05.442Z,3224
2019-05-20T06:52:06.199Z,3224
2019-05-20T06:53:07.031Z,3224
2019-05-20T06:54:07.773Z,3224
2019-05-20T06:55:08.541Z,3224
2019-05-20T06:56:09.389Z,3224
2019-05-20T06:57:10.443Z,3224
2019-05-20T06:58:11.897Z,3224
2019-05-20T06:59:12.695Z,3224
2019-05-20T07:00:13.470Z,3224
2019-05-20T07:01:14.266Z,3224
2019-05-20T07:02:15.133Z,3224
2019-05-20T07:03:16.005Z,3224
2019-05-20T07:04:16.790Z,3204
2019-05-20T07:05:17.564Z,3204
2019-05-20T07:06:18.389Z,3204
2019-05-20T07:07:21.119Z,3204
2019-05-20T07:08:22.284Z,3204
2019-05-20T07:09:23.062Z,3204
2019-05-20T07:10:23.881Z,3204
2019-05-20T07:11:24.660Z,3204
2019-05-20T07:12:40.009Z,3204
2019-05-20T07:13:42.781Z,3204
2019-05-20T07:14:43.673Z,3204
2019-05-20T07:15:44.437Z,3204
2019-05-20T07:16:45.310Z,3204
2019-05-20T07:17:46.105Z,3204
2019-05-20T07:18:46.913Z,3184
2019-05-20T07:19:47.698Z,3184
2019-05-20T07:20:48.440Z,3184
2019-05-20T07:21:49.271Z,3184
2019-05-20T07:22:55.546Z,3184
2019-05-20T07:23:57.851Z,3184
2019-05-20T07:24:58.619Z,3184
2019-05-20T07:25:59.412Z,3184
2019-05-20T07:27:00.295Z,3184
2019-05-20T07:28:01.212Z,3184
2019-05-20T07:29:02.162Z,3184
2019-05-20T07:30:03.031Z,3184
2019-05-20T07:31:03.847Z,3184
2019-05-20T07:32:04.627Z,3184
2019-05-20T07:33:05.412Z,3164
2019-05-20T07:34:06.250Z,3164
2019-05-20T07:35:06.986Z,3164
2019-05-20T07:36:10.061Z,3164
2019-05-20T07:37:11.025Z,3164
2019-05-20T07:38:11.881Z,3164
2019-05-20T07:39:12.726Z,3164
2019-05-20T07:40:13.525Z,3164
2019-05-20T07:41:14.315Z,3164
2019-05-20T07:42:15.192Z,3164
2019-05-20T07:43:15.991Z,3164
2019-05-20T07:44:16.822Z,3164
2019-05-20T07:45:17.581Z,3164
2019-05-20T07:46:18.320Z,3164
2019-05-20T07:47:19.091Z,3144
2019-05-20T07:48:19.984Z,3144
2019-05-20T07:49:21.023Z,3144
2019-05-20T07:50:21.771Z,3144
2019-05-20T07:51:22.506Z,3144
2019-05-20T07:52:23.314Z,3144
2019-05-20T07:53:24.111Z,3144
2019-05-20T07:54:24.934Z,3144
2019-05-20T07:55:25.713Z,3144
2019-05-20T07:56:26.473Z,3144
2019-05-20T07:57:27.206Z,3144
2019-05-20T07:58:28.026Z,3144
2019-05-20T07:59:28.853Z,3124
2019-05-20T08:00:29.724Z,3124
2019-05-20T08:01:30.454Z,3124
2019-05-20T08:02:31.288Z,3124
2019-05-20T08:03:32.089Z,3124
2019-05-20T08:04:33.008Z,3124
2019-05-20T08:05:34.397Z,3124
2019-05-20T08:06:35.170Z,3124
2019-05-20T08:07:51.002Z,3124
2019-05-20T08:08:53.518Z,3124
2019-05-20T08:09:54.264Z,3124
2019-05-20T08:10:55.132Z,3124
2019-05-20T08:11:55.886Z,3104
2019-05-20T08:12:56.616Z,3104
2019-05-20T08:13:57.379Z,3104
2019-05-20T08:14:58.185Z,3104
2019-05-20T08:15:59.025Z,3104
2019-05-20T08:16:59.948Z,3104
2019-05-20T08:18:00.836Z,3104
2019-05-20T08:19:01.638Z,3104
2019-05-20T08:20:02.511Z,3104
2019-05-20T08:21:03.416Z,3104
2019-05-20T08:22:04.180Z,3104
2019-05-20T08:23:04.951Z,3104
2019-05-20T08:24:05.859Z,3084
2019-05-20T08:25:06.671Z,3084
2019-05-20T08:26:07.411Z,3084
2019-05-20T08:27:08.226Z,3084
2019-05-20T08:28:08.970Z,3084
2019-05-20T08:29:09.737Z,3084
2019-05-20T08:30:13.965Z,3084
2019-05-20T08:31:15.136Z,3084
2019-05-20T08:32:15.925Z,3164
2019-05-20T08:33:16.683Z,3144
2019-05-20T08:34:17.466Z,3144
2019-05-20T08:35:18.405Z,3144
2019-05-20T08:36:19.236Z,3284
2019-05-20T08:37:20.017Z,3164
2019-05-20T08:38:20.777Z,3164
2019-05-20T08:39:21.561Z,3164
2019-05-20T08:40:22.358Z,3164
2019-05-20T08:41:23.142Z,3144
2019-05-20T08:42:24.195Z,3144
2019-05-20T08:43:25.043Z,3144
2019-05-20T08:44:25.880Z,3144
2019-05-20T08:45:26.810Z,3084
2019-05-20T08:46:47.842Z,3064
2019-05-20T08:46:52.011Z,3064
2019-05-20T08:48:13.002Z,3484
2019-05-20T08:49:13.950Z,3224
2019-05-20T08:50:16.062Z,3204
2019-05-20T08:51:17.349Z,3204
2019-05-20T08:52:18.199Z,3204
2019-05-20T08:53:18.992Z,3204
2019-05-20T08:54:19.787Z,3284
2019-05-20T08:55:20.611Z,3264
2019-05-20T08:56:21.405Z,3144
2019-05-20T08:57:22.258Z,3224
2019-05-20T08:58:22.996Z,3224
2019-05-20T08:59:23.758Z,3224
2019-05-20T09:00:24.940Z,3224
2019-05-20T09:01:26.726Z,3224
2019-05-20T09:02:27.606Z,3224
2019-05-20T09:03:30.399Z,3224
2019-05-20T09:04:31.663Z,3224
2019-05-20T09:05:32.524Z,3224
2019-05-20T09:06:33.423Z,3244
2019-05-20T09:07:34.418Z,3244
2019-05-20T09:08:35.226Z,3244
2019-05-20T09:09:36.175Z,3244
2019-05-20T09:10:39.522Z,3244
2019-05-20T09:11:40.575Z,3244
2019-05-20T09:12:41.431Z,3244
2019-05-20T09:13:42.240Z,3244
2019-05-20T09:14:43.050Z,3244
2019-05-20T09:15:45.413Z,3244
2019-05-20T09:16:46.366Z,3244
2019-05-20T09:17:47.229Z,3244
2019-05-20T09:18:48.074Z,3244
2019-05-20T09:19:48.863Z,3244
2019-05-20T09:20:49.665Z,3244
2019-05-20T09:21:50.462Z,3244
2019-05-20T09:22:51.483Z,3244
2019-05-20T09:23:52.316Z,3244
2019-05-20T09:24:53.154Z,3244
2019-05-20T09:25:54.084Z,3264
2019-05-20T09:26:54.944Z,3264
2019-05-20T09:27:55.780Z,3264
2019-05-20T09:28:56.513Z,3264
2019-05-20T09:29:57.357Z,3264
2019-05-20T09:30:58.183Z,3264
2019-05-20T09:31:58.969Z,3264
2019-05-20T09:32:59.850Z,3264
2019-05-20T09:34:00.681Z,3264
2019-05-20T09:35:01.592Z,3264
2019-05-20T09:36:02.693Z,3264
2019-05-20T09:37:04.073Z,3264
2019-05-20T09:38:17.596Z,3264
2019-05-20T09:39:22.197Z,3264
2019-05-20T09:40:23.131Z,3264
2019-05-20T09:41:24.437Z,3264
2019-05-20T09:42:25.343Z,3264
2019-05-20T09:43:26.294Z,3264
2019-05-20T09:44:27.153Z,3264
2019-05-20T09:45:28.133Z,3284
2019-05-20T09:46:29.000Z,3284
2019-05-20T09:47:29.821Z,3284
2019-05-20T09:48:30.827Z,3284
2019-05-20T09:49:31.746Z,3284
2019-05-20T09:50:32.854Z,3284
2019-05-20T09:51:33.696Z,3284
2019-05-20T09:52:34.659Z,3284
2019-05-20T09:53:35.571Z,3284
2019-05-20T09:54:36.460Z,3284
2019-05-20T09:55:37.555Z,3284
2019-05-20T09:56:39.116Z,3284
2019-05-20T09:57:39.976Z,3284
2019-05-20T09:58:40.956Z,3284
2019-05-20T09:59:43.005Z,3284
2019-05-20T10:00:44.760Z,3284
2019-05-20T10:01:45.728Z,3284
2019-05-20T10:02:46.671Z,3284
2019-05-20T10:03:47.571Z,3284
2019-05-20T10:04:48.390Z,3284
2019-05-20T10:05:49.304Z,3284
2019-05-20T10:06:50.150Z,3284
2019-05-20T10:07:51.038Z,3284
2019-05-20T10:08:51.951Z,3284
2019-05-20T10:09:52.913Z,3284
2019-05-20T10:10:53.762Z,3304
2019-05-20T10:11:54.576Z,3284
2019-05-20T10:12:55.606Z,3304
2019-05-20T10:13:56.637Z,3304
2019-05-20T10:14:57.478Z,3304
2019-05-20T10:15:58.361Z,3304
2019-05-20T10:16:59.371Z,3304
2019-05-20T10:18:00.277Z,3304
2019-05-20T10:19:01.159Z,3304
2019-05-20T10:20:01.944Z,3304
2019-05-20T10:21:02.934Z,3304
2019-05-20T10:22:03.858Z,3304
2019-05-20T10:23:04.709Z,3304
2019-05-20T10:24:05.603Z,3304
2019-05-20T10:25:06.430Z,3304
2019-05-20T10:26:07.379Z,3304
2019-05-20T10:27:08.166Z,3304
2019-05-20T10:28:09.160Z,3304
2019-05-20T10:29:10.069Z,3304
2019-05-20T10:30:10.947Z,3304
2019-05-20T10:31:11.864Z,3304
2019-05-20T10:32:12.737Z,3304
2019-05-20T10:33:13.636Z,3304
2019-05-20T10:34:14.606Z,3304
2019-05-20T10:35:15.491Z,3304
2019-05-20T10:36:16.348Z,3304
2019-05-20T10:37:17.155Z,3304
2019-05-20T10:38:18.092Z,3304
2019-05-20T10:39:18.990Z,3304
2019-05-20T10:40:19.878Z,3304
2019-05-20T10:41:20.829Z,3304
2019-05-20T10:42:21.767Z,3304
2019-05-20T10:43:22.699Z,3304
2019-05-20T10:44:23.670Z,3304
2019-05-20T10:45:24.579Z,3324
2019-05-20T10:46:25.596Z,3324
2019-05-20T10:47:26.505Z,3304
2019-05-20T10:48:27.343Z,3324
2019-05-20T10:49:28.235Z,3324
2019-05-20T10:50:29.134Z,3324
2019-05-20T10:51:30.107Z,3324
2019-05-20T10:52:30.947Z,3324
2019-05-20T10:53:31.746Z,3324
2019-05-20T10:54:32.660Z,3324
2019-05-20T10:55:33.674Z,3324
2019-05-20T10:56:34.551Z,3324
2019-05-20T10:57:35.378Z,3324
2019-05-20T10:58:36.222Z,3324
2019-05-20T10:59:37.128Z,3324
2019-05-20T11:00:38.030Z,3324
2019-05-20T11:01:38.904Z,3324
2019-05-20T11:02:39.657Z,3324
2019-05-20T11:03:40.476Z,3324
2019-05-20T11:04:41.386Z,3324
2019-05-20T11:05:42.297Z,3324
2019-05-20T11:06:43.164Z,3324
2019-05-20T11:07:43.917Z,3324
2019-05-20T11:08:44.808Z,3324
2019-05-20T11:09:45.631Z,3324
2019-05-20T11:10:46.745Z,3324
2019-05-20T11:11:47.643Z,3324
2019-05-20T11:12:48.367Z,3304
2019-05-20T11:13:49.069Z,3344
2019-05-20T11:14:49.861Z,3344
2019-05-20T11:15:50.638Z,3344
2019-05-20T11:16:51.515Z,3344
2019-05-20T11:17:52.243Z,3344
2019-05-20T11:18:53.000Z,3344
2019-05-20T11:19:53.799Z,3344
2019-05-20T11:20:54.556Z,3344
2019-05-20T11:21:55.460Z,3344
2019-05-20T11:22:56.425Z,3344
2019-05-20T11:24:01.980Z,3344
2019-05-20T11:25:02.824Z,3344
2019-05-20T11:26:03.617Z,3344
2019-05-20T11:27:04.422Z,3344
2019-05-20T11:28:05.169Z,3344
2019-05-20T11:29:05.905Z,3344
2019-05-20T11:30:06.733Z,3344
2019-05-20T11:31:07.590Z,3344
2019-05-20T11:32:08.401Z,3344
2019-05-20T11:33:09.162Z,3344
2019-05-20T11:34:09.922Z,3344
2019-05-20T11:35:10.718Z,3344
2019-05-20T11:36:11.544Z,3344
2019-05-20T11:37:12.596Z,3344
2019-05-20T11:38:13.352Z,3344
2019-05-20T11:39:29.225Z,3344
2019-05-20T11:40:34.833Z,3344
2019-05-20T11:41:52.564Z,3344
2019-05-20T11:42:55.389Z,3344
2019-05-20T11:43:56.190Z,3344
2019-05-20T11:44:57.071Z,3344
2019-05-20T11:45:57.881Z,3344
2019-05-20T11:46:58.664Z,3364
2019-05-20T11:47:59.568Z,3364
2019-05-20T11:49:00.343Z,3364
2019-05-20T11:50:01.130Z,3364
2019-05-20T11:51:02.049Z,3364
2019-05-20T11:52:03.020Z,3364
2019-05-20T11:53:04.364Z,3364
2019-05-20T11:54:05.310Z,3364
2019-05-20T11:55:06.173Z,3364
2019-05-20T11:56:07.037Z,3364
2019-05-20T11:57:07.874Z,3364
2019-05-20T11:58:15.587Z,3364
2019-05-20T11:59:17.468Z,3364
2019-05-20T12:00:18.649Z,3364
2019-05-20T12:01:19.747Z,3364
2019-05-20T12:02:20.509Z,3364
2019-05-20T12:03:21.290Z,3364
2019-05-20T12:04:22.038Z,3364
2019-05-20T12:05:22.818Z,3364
2019-05-20T12:06:23.657Z,3364
2019-05-20T12:07:24.396Z,3364
2019-05-20T12:08:25.270Z,3364
2019-05-20T12:09:26.007Z,3364
2019-05-20T12:10:26.772Z,3364
2019-05-20T12:11:27.558Z,3364
2019-05-20T12:12:28.332Z,3364
2019-05-20T12:13:29.104Z,3364
2019-05-20T12:14:29.907Z,3364
2019-05-20T12:15:30.791Z,3364
2019-05-20T12:16:31.567Z,3364
2019-05-20T12:17:32.406Z,3364
2019-05-20T12:18:33.203Z,3364
2019-05-20T12:19:33.990Z,3364
2019-05-20T12:20:34.762Z,3364
2019-05-20T12:21:35.552Z,3364
2019-05-20T12:22:36.289Z,3364
2019-05-20T12:23:37.126Z,3364
2019-05-20T12:24:38.014Z,3384
2019-05-20T12:25:38.938Z,3384
2019-05-20T12:26:39.737Z,3384
2019-05-20T12:27:40.500Z,3384
2019-05-20T12:28:41.309Z,3384
2019-05-20T12:29:42.036Z,3384
2019-05-20T12:30:42.810Z,3384
2019-05-20T12:31:43.651Z,3384
2019-05-20T12:32:44.434Z,3384
2019-05-20T12:33:45.305Z,3384
2019-05-20T12:34:46.053Z,3384
2019-05-20T12:35:46.808Z,3364
2019-05-20T12:36:47.623Z,3384
2019-05-20T12:37:48.490Z,3384
2019-05-20T12:38:49.309Z,3384
2019-05-20T12:40:05.746Z,3384
2019-05-20T12:41:09.431Z,3384
2019-05-20T12:42:10.414Z,3384
2019-05-20T12:43:12.083Z,3384
2019-05-20T12:44:13.264Z,3384
2019-05-20T12:45:14.094Z,3384
2019-05-20T12:46:14.855Z,3384
2019-05-20T12:47:15.749Z,3384
2019-05-20T12:48:16.801Z,3384
2019-05-20T12:49:17.798Z,3384
2019-05-20T12:50:18.937Z,3384
2019-05-20T12:51:19.656Z,3384
2019-05-20T12:52:20.381Z,3384
2019-05-20T12:53:21.202Z,3384
2019-05-20T12:54:21.995Z,3384
2019-05-20T12:55:22.796Z,3384
2019-05-20T12:56:23.570Z,3384
2019-05-20T12:57:24.310Z,3384
2019-05-20T12:58:25.252Z,3384
2019-05-20T12:59:26.140Z,3384
2019-05-20T13:00:26.929Z,3384
2019-05-20T13:01:27.727Z,3384
2019-05-20T13:02:28.443Z,3384
2019-05-20T13:03:29.252Z,3384
2019-05-20T13:04:30.048Z,3384
2019-05-20T13:05:30.793Z,3384
2019-05-20T13:06:31.522Z,3384
2019-05-20T13:07:32.308Z,3404
2019-05-20T13:08:33.187Z,3404
2019-05-20T13:09:34.063Z,3404
2019-05-20T13:10:34.811Z,3404
2019-05-20T13:11:35.635Z,3404
2019-05-20T13:12:36.402Z,3404
2019-05-20T13:13:37.269Z,3404
2019-05-20T13:14:38.090Z,3404
2019-05-20T13:15:38.851Z,3404
2019-05-20T13:16:39.642Z,3404
2019-05-20T13:17:44.084Z,3404
2019-05-20T13:18:55.233Z,3404
2019-05-20T13:19:57.333Z,3404
2019-05-20T13:20:58.079Z,3404
2019-05-20T13:21:58.855Z,3404
2019-05-20T13:22:59.563Z,3404
2019-05-20T13:24:00.392Z,3404
2019-05-20T13:25:01.254Z,3404
2019-05-20T13:26:02.052Z,3404
2019-05-20T13:27:02.817Z,3404
2019-05-20T13:28:03.545Z,3404
2019-05-20T13:29:04.577Z,3404
2019-05-20T13:30:05.403Z,3404
2019-05-20T13:31:06.173Z,3404
2019-05-20T13:32:06.963Z,3404
2019-05-20T13:33:07.730Z,3404